Time;durP1;ratioP1;P1;durP2;ratioP2;P2;SDS_P1;SDS_P2;PMS_P1;PMS_P2;Temp;Humidity;BMP_temperature;BMP_pressure;BME280_temperature;BME280_humidity;BME280_pressure;Samples;Min_cycle;Max_cycle;Signal;HPM_P1;HPM_P2
2023/07/22 00:00:09;;;;;;;3.67;2.05;;;17.40;80.30;;;;;;5064694;28;20075;-73
2023/07/22 00:02:42;;;;;;;3.45;1.60;;;17.40;80.40;;;;;;5064655;28;20040;-73
2023/07/22 00:05:11;;;;;;;3.03;1.70;;;17.30;80.20;;;;;;5062357;28;20059;-72
2023/07/22 00:07:40;;;;;;;3.13;1.83;;;17.30;80.30;;;;;;5080623;28;20079;-74
2023/07/22 00:10:10;;;;;;;3.22;1.90;;;17.20;80.30;;;;;;5063677;28;20568;-74
2023/07/22 00:12:40;;;;;;;3.95;2.40;;;17.20;80.30;;;;;;5060090;28;20049;-72
2023/07/22 00:15:11;;;;;;;4.80;2.50;;;17.20;80.30;;;;;;5064073;28;20058;-74
2023/07/22 00:17:39;;;;;;;3.38;2.10;;;17.20;80.30;;;;;;5062624;28;20126;-72
2023/07/22 00:20:11;;;;;;;3.78;2.15;;;17.20;80.40;;;;;;5062253;28;20044;-72
2023/07/22 00:22:39;;;;;;;4.30;2.22;;;17.20;80.40;;;;;;5064255;28;20188;-72
2023/07/22 00:25:11;;;;;;;3.88;2.03;;;17.20;80.20;;;;;;5063478;28;20051;-74
2023/07/22 00:27:38;;;;;;;4.13;1.90;;;17.20;80.20;;;;;;5062618;28;20060;-74
2023/07/22 00:30:06;;;;;;;3.58;1.98;;;17.20;80.20;;;;;;5059173;28;20062;-74
2023/07/22 00:32:34;;;;;;;4.63;2.22;;;17.10;80.20;;;;;;5062589;28;20097;-73
2023/07/22 00:35:01;;;;;;;4.63;2.00;;;17.10;80.20;;;;;;5057689;28;20127;-72
2023/07/22 00:37:29;;;;;;;3.65;2.13;;;17.00;80.20;;;;;;5061027;28;20357;-72
2023/07/22 00:39:56;;;;;;;3.75;2.05;;;17.00;80.20;;;;;;5062850;28;20040;-73
2023/07/22 00:42:24;;;;;;;4.28;2.22;;;17.00;80.10;;;;;;5058313;28;20510;-73
2023/07/22 00:44:51;;;;;;;3.65;1.73;;;17.10;80.00;;;;;;5060786;28;20118;-72
2023/07/22 00:47:19;;;;;;;2.80;1.50;;;17.10;79.90;;;;;;5061472;28;20412;-72
2023/07/22 00:49:49;;;;;;;3.83;1.83;;;17.00;79.80;;;;;;5059646;28;20044;-72
2023/07/22 00:52:17;;;;;;;6.03;1.90;;;16.90;80.00;;;;;;5062724;28;20473;-73
2023/07/22 00:54:46;;;;;;;4.00;1.88;;;16.90;79.90;;;;;;5059835;28;20040;-75
2023/07/22 00:57:14;;;;;;;3.08;1.70;;;16.80;79.90;;;;;;5063686;28;20048;-72
2023/07/22 00:59:41;;;;;;;3.97;2.20;;;16.80;79.90;;;;;;5062976;28;20084;-73
2023/07/22 01:02:09;;;;;;;3.50;2.15;;;16.70;80.00;;;;;;5061761;28;20052;-75
2023/07/22 01:04:37;;;;;;;3.67;2.15;;;16.60;79.90;;;;;;5061677;28;20037;-75
2023/07/22 01:07:06;;;;;;;4.82;2.00;;;16.60;80.10;;;;;;5058871;28;20040;-73
2023/07/22 01:09:37;;;;;;;3.90;1.73;;;16.60;80.00;;;;;;5057042;28;20045;-72
2023/07/22 01:12:07;;;;;;;3.50;1.90;;;16.60;80.00;;;;;;5060785;28;20528;-73
2023/07/22 01:14:36;;;;;;;3.67;1.90;;;16.50;79.90;;;;;;5056352;28;20060;-70
2023/07/22 01:17:04;;;;;;;3.17;1.70;;;16.50;79.80;;;;;;5058290;28;20067;-70
2023/07/22 01:19:32;;;;;;;6.20;2.28;;;16.40;79.80;;;;;;5063436;28;20045;-70
2023/07/22 01:22:01;;;;;;;3.78;2.20;;;16.40;79.80;;;;;;5059231;28;20493;-70
2023/07/22 01:24:31;;;;;;;;;;;16.40;79.80;;;;;;5060601;28;20055;-70
2023/07/22 01:26:58;;;;;;;3.25;2.00;;;16.40;79.70;;;;;;5076040;28;19929;-70
2023/07/22 01:29:26;;;;;;;3.60;2.03;;;16.20;79.90;;;;;;5065342;28;20102;-71
2023/07/22 01:31:55;;;;;;;3.00;1.88;;;16.20;79.80;;;;;;5062040;28;20441;-70
2023/07/22 01:34:24;;;;;;;3.83;2.15;;;16.20;79.90;;;;;;5057332;28;20072;-72
2023/07/22 01:36:51;;;;;;;4.28;1.98;;;16.20;79.80;;;;;;5059939;28;20048;-70
2023/07/22 01:39:19;;;;;;;4.15;2.10;;;16.20;79.70;;;;;;5060289;28;20684;-69
2023/07/22 01:41:47;;;;;;;3.40;1.80;;;16.10;79.90;;;;;;5060735;28;20090;-70
2023/07/22 01:44:15;;;;;;;4.43;2.22;;;16.10;80.00;;;;;;5064267;28;20056;-69
2023/07/22 01:46:42;;;;;;;4.50;2.30;;;16.10;80.20;;;;;;5060948;28;20044;-70
2023/07/22 01:49:12;;;;;;;5.40;2.13;;;16.00;80.30;;;;;;5062928;28;20072;-71
2023/07/22 01:51:39;;;;;;;;;;;16.10;80.50;;;;;;5056772;28;20048;-70
2023/07/22 01:54:06;;;;;;;2.70;2.00;;;16.00;80.60;;;;;;5063123;28;20372;-71
2023/07/22 01:56:33;;;;;;;4.22;2.00;;;16.10;80.50;;;;;;5062547;28;20048;-70
2023/07/22 01:59:01;;;;;;;3.08;2.03;;;16.10;80.60;;;;;;5062821;28;20086;-70
2023/07/22 02:01:29;;;;;;;2.95;1.80;;;16.10;80.50;;;;;;5061797;28;20041;-70
2023/07/22 02:03:56;;;;;;;3.85;2.20;;;16.10;80.70;;;;;;5064161;28;20125;-71
2023/07/22 02:06:23;;;;;;;4.35;2.42;;;16.10;80.70;;;;;;5076531;28;20131;-71
2023/07/22 02:08:50;;;;;;;4.43;2.30;;;16.10;80.70;;;;;;5063773;28;20235;-71
2023/07/22 02:11:18;;;;;;;5.30;2.53;;;16.10;80.80;;;;;;5058241;28;20063;-70
2023/07/22 02:13:45;;;;;;;4.05;2.63;;;16.10;80.90;;;;;;5061078;28;20468;-70
2023/07/22 02:16:13;;;;;;;4.53;2.58;;;16.10;80.90;;;;;;5059017;28;20383;-70
2023/07/22 02:18:44;;;;;;;5.32;2.97;;;16.10;80.70;;;;;;5058948;28;20497;-70
2023/07/22 02:21:11;;;;;;;4.45;2.63;;;16.00;80.80;;;;;;5061641;28;20052;-70
2023/07/22 02:23:38;;;;;;;5.32;2.65;;;16.00;81.10;;;;;;5063928;28;20485;-69
2023/07/22 02:26:06;;;;;;;4.28;2.53;;;16.10;81.00;;;;;;5061799;28;20377;-70
2023/07/22 02:28:34;;;;;;;4.55;2.67;;;16.10;80.80;;;;;;5062691;28;20045;-70
2023/07/22 02:31:04;;;;;;;5.15;3.00;;;16.10;80.80;;;;;;5063549;28;20049;-69
2023/07/22 02:33:33;;;;;;;5.63;3.40;;;16.10;80.70;;;;;;5065020;28;20041;-70
2023/07/22 02:36:00;;;;;;;5.10;3.15;;;16.10;80.90;;;;;;5065058;28;20114;-73
2023/07/22 02:38:26;;;;;;;5.07;3.30;;;16.10;81.00;;;;;;5066008;28;20048;-73
2023/07/22 02:40:54;;;;;;;5.95;3.67;;;16.00;81.10;;;;;;5066120;28;20135;-71
2023/07/22 02:43:20;;;;;;;6.45;3.28;;;16.10;81.00;;;;;;5064671;28;21272;-70
2023/07/22 02:45:47;;;;;;;5.57;3.80;;;16.00;80.90;;;;;;5064716;28;20061;-71
2023/07/22 02:48:14;;;;;;;5.07;3.22;;;15.90;81.20;;;;;;5063859;28;20048;-70
2023/07/22 02:50:43;;;;;;;5.80;3.40;;;15.90;81.30;;;;;;5065286;28;20512;-71
2023/07/22 02:53:10;;;;;;;4.85;3.28;;;15.90;81.30;;;;;;5066433;28;20511;-70
2023/07/22 02:55:36;;;;;;;5.47;3.33;;;15.90;81.30;;;;;;5057635;28;20488;-71
2023/07/22 02:58:05;;;;;;;10.27;3.83;;;16.00;81.20;;;;;;5063731;28;20060;-70
2023/07/22 03:00:32;;;;;;;4.35;3.17;;;15.90;81.20;;;;;;5065907;28;20102;-69
2023/07/22 03:03:00;;;;;;;4.75;3.30;;;15.90;81.30;;;;;;5086206;28;20048;-70
2023/07/22 03:05:28;;;;;;;7.40;3.95;;;15.90;81.30;;;;;;5065752;28;20053;-70
2023/07/22 03:08:00;;;;;;;5.40;3.38;;;16.00;81.10;;;;;;5065929;28;20048;-70
2023/07/22 03:10:28;;;;;;;5.13;3.50;;;16.00;80.80;;;;;;5062787;28;20155;-70
2023/07/22 03:12:56;;;;;;;5.85;3.83;;;16.00;80.90;;;;;;5064067;28;20421;-70
2023/07/22 03:15:25;;;;;;;5.72;3.67;;;15.90;81.20;;;;;;5066286;28;20045;-71
2023/07/22 03:17:53;;;;;;;5.30;3.63;;;15.80;81.40;;;;;;5066137;28;20150;-70
2023/07/22 03:20:21;;;;;;;5.88;3.83;;;15.80;81.50;;;;;;5063776;28;20044;-70
2023/07/22 03:22:48;;;;;;;5.07;3.33;;;15.80;81.60;;;;;;5065771;28;20052;-71
2023/07/22 03:25:17;;;;;;;6.72;3.25;;;15.80;81.50;;;;;;5067349;28;20519;-72
2023/07/22 03:27:45;;;;;;;5.40;3.58;;;15.90;81.40;;;;;;5063482;28;20060;-71
2023/07/22 03:30:15;;;;;;;4.75;3.38;;;15.90;81.30;;;;;;5065348;28;20048;-71
2023/07/22 03:32:43;;;;;;;7.10;4.05;;;15.80;81.30;;;;;;5067834;28;20048;-71
2023/07/22 03:35:10;;;;;;;6.38;4.32;;;15.70;81.30;;;;;;5065807;28;20045;-70
2023/07/22 03:37:37;;;;;;;6.47;4.05;;;15.70;81.30;;;;;;5066079;28;20492;-71
2023/07/22 03:40:10;;;;;;;6.78;4.38;;;15.70;81.20;;;;;;5063605;28;20597;-70
2023/07/22 03:42:39;;;;;;;5.90;3.80;;;15.70;81.10;;;;;;5067564;28;20547;-71
2023/07/22 03:45:08;;;;;;;5.72;3.72;;;15.60;81.20;;;;;;5064567;28;20137;-69
2023/07/22 03:47:35;;;;;;;6.50;4.47;;;15.70;81.00;;;;;;5064465;28;20405;-69
2023/07/22 03:50:02;;;;;;;6.00;4.30;;;15.60;81.20;;;;;;5064199;28;20053;-69
2023/07/22 03:52:29;;;;;;;5.43;3.72;;;15.60;81.10;;;;;;5065655;28;20045;-71
2023/07/22 03:54:56;;;;;;;6.32;4.32;;;15.60;81.10;;;;;;5065535;28;20458;-70
2023/07/22 03:57:26;;;;;;;6.43;4.72;;;15.60;81.10;;;;;;5065707;28;20051;-70
2023/07/22 03:59:57;;;;;;;;;;;15.60;81.00;;;;;;5066205;28;20412;-71
2023/07/22 04:02:24;;;;;;;7.25;4.30;;;15.60;81.30;;;;;;5060716;28;19931;-71
2023/07/22 04:04:51;;;;;;;5.82;3.83;;;15.60;81.20;;;;;;5061515;28;20086;-72
2023/07/22 04:07:18;;;;;;;8.32;4.30;;;15.60;81.20;;;;;;5062833;28;20076;-70
2023/07/22 04:09:46;;;;;;;6.28;4.43;;;15.50;81.40;;;;;;5063729;28;20131;-70
2023/07/22 04:12:13;;;;;;;6.05;4.07;;;15.50;81.50;;;;;;5067171;28;20127;-70
2023/07/22 04:14:40;;;;;;;6.90;4.75;;;15.60;81.20;;;;;;5063746;28;20040;-71
2023/07/22 04:17:08;;;;;;;5.22;3.80;;;15.50;81.40;;;;;;5063448;28;20048;-70
2023/07/22 04:19:35;;;;;;;7.30;4.53;;;15.50;81.70;;;;;;5063040;28;20114;-69
2023/07/22 04:22:04;;;;;;;7.43;4.78;;;15.60;81.80;;;;;;5062570;28;20048;-70
2023/07/22 04:24:31;;;;;;;5.88;4.03;;;15.60;81.70;;;;;;5064486;28;20420;-70
2023/07/22 04:26:59;;;;;;;7.00;4.60;;;15.60;82.00;;;;;;5061939;28;20086;-71
2023/07/22 04:29:27;;;;;;;7.60;4.78;;;15.50;82.30;;;;;;5065668;28;20045;-71
2023/07/22 04:31:58;;;;;;;6.25;4.93;;;15.50;82.40;;;;;;5065036;28;20492;-70
2023/07/22 04:34:30;;;;;;;6.10;4.70;;;15.60;82.30;;;;;;5065909;28;20060;-71
2023/07/22 04:36:57;;;;;;;7.47;4.75;;;15.50;82.20;;;;;;5062469;28;20493;-70
2023/07/22 04:39:24;;;;;;;7.57;5.18;;;15.50;82.20;;;;;;5062750;28;20048;-72
2023/07/22 04:41:51;;;;;;;7.40;5.15;;;15.60;82.00;;;;;;5063293;28;21261;-70
2023/07/22 04:44:19;;;;;;;6.25;4.60;;;15.50;82.00;;;;;;5064928;28;20135;-70
2023/07/22 04:46:46;;;;;;;5.78;4.13;;;15.60;82.00;;;;;;5061419;28;20516;-70
2023/07/22 04:49:17;;;;;;;6.78;4.82;;;15.60;81.70;;;;;;5065355;28;20045;-71
2023/07/22 04:51:45;;;;;;;8.02;5.25;;;15.60;81.50;;;;;;5065471;28;20127;-71
2023/07/22 04:54:12;;;;;;;7.93;4.47;;;15.60;81.50;;;;;;5064561;28;20076;-70
2023/07/22 04:56:39;;;;;;;6.35;5.20;;;15.50;81.60;;;;;;5064262;28;20056;-70
2023/07/22 04:59:06;;;;;;;6.85;5.28;;;15.60;81.50;;;;;;5064368;28;20534;-70
2023/07/22 05:01:33;;;;;;;7.40;4.95;;;15.50;81.70;;;;;;5060543;28;20463;-71
2023/07/22 05:04:01;;;;;;;7.80;5.57;;;15.40;82.00;;;;;;5063863;28;20049;-70
2023/07/22 05:06:29;;;;;;;6.55;4.93;;;15.40;82.00;;;;;;5062742;28;20047;-70
2023/07/22 05:08:58;;;;;;;6.75;4.80;;;15.40;82.10;;;;;;5066974;28;20051;-70
2023/07/22 05:11:25;;;;;;;8.30;5.45;;;15.50;82.00;;;;;;5063553;28;20056;-70
2023/07/22 05:13:52;;;;;;;8.98;5.00;;;15.60;81.50;;;;;;5059612;28;20059;-70
2023/07/22 05:16:18;;;;;;;6.35;4.22;;;15.60;81.60;;;;;;5062121;28;20060;-71
2023/07/22 05:18:46;;;;;;;6.43;4.63;;;15.70;81.40;;;;;;5063532;28;20045;-70
2023/07/22 05:21:13;;;;;;;6.05;4.15;;;15.70;81.00;;;;;;5060819;28;20052;-69
2023/07/22 05:23:40;;;;;;;7.32;5.20;;;15.70;81.20;;;;;;5065488;28;20056;-70
2023/07/22 05:26:08;;;;;;;6.88;4.57;;;15.70;81.00;;;;;;5061548;28;20072;-70
2023/07/22 05:28:35;;;;;;;7.25;5.05;;;15.80;81.20;;;;;;5062737;28;20048;-71
2023/07/22 05:31:02;;;;;;;7.20;5.15;;;15.80;81.00;;;;;;5059647;28;20072;-71
2023/07/22 05:33:29;;;;;;;6.35;4.90;;;15.80;80.60;;;;;;5063068;28;20568;-69
2023/07/22 05:35:56;;;;;;;6.25;4.65;;;15.80;81.00;;;;;;5063347;28;20044;-71
2023/07/22 05:38:23;;;;;;;5.95;4.10;;;15.90;81.00;;;;;;5061662;28;20080;-70
2023/07/22 05:40:49;;;;;;;5.57;4.38;;;15.90;80.80;;;;;;5063104;28;20162;-69
2023/07/22 05:43:18;;;;;;;5.90;4.65;;;15.90;80.90;;;;;;5062750;28;20524;-71
2023/07/22 05:45:45;;;;;;;7.10;4.97;;;15.90;81.10;;;;;;5061633;28;20602;-70
2023/07/22 05:48:12;;;;;;;6.60;4.82;;;15.90;80.80;;;;;;5062783;28;20052;-70
2023/07/22 05:50:39;;;;;;;6.45;4.97;;;15.90;80.60;;;;;;5058951;28;20472;-70
2023/07/22 05:53:06;;;;;;;5.95;4.40;;;15.90;80.20;;;;;;5065335;28;20496;-71
2023/07/22 05:55:33;;;;;;;6.78;4.75;;;15.90;80.30;;;;;;5060697;28;20083;-70
2023/07/22 05:58:05;;;;;;;6.22;4.45;;;16.00;79.90;;;;;;5062980;28;20047;-70
2023/07/22 06:00:33;;;;;;;6.50;4.25;;;15.90;79.90;;;;;;5056399;28;20175;-70
2023/07/22 06:03:01;;;;;;;5.35;4.32;;;16.00;80.20;;;;;;5062190;28;20121;-72
2023/07/22 06:05:28;;;;;;;5.90;4.07;;;16.10;79.70;;;;;;5061646;28;20420;-70
2023/07/22 06:07:57;;;;;;;6.05;4.50;;;16.10;79.50;;;;;;5063648;28;20508;-70
2023/07/22 06:10:24;;;;;;;6.93;4.80;;;16.10;79.70;;;;;;5066467;28;20048;-70
2023/07/22 06:12:51;;;;;;;7.00;4.90;;;16.10;79.70;;;;;;5066914;28;20040;-72
2023/07/22 06:15:18;;;;;;;6.95;4.60;;;16.10;79.80;;;;;;5064320;28;20049;-73
2023/07/22 06:17:46;;;;;;;8.18;5.43;;;16.10;79.90;;;;;;5069682;28;20044;-70
2023/07/22 06:20:13;;;;;;;7.22;5.15;;;16.20;79.80;;;;;;5064416;28;20049;-72
2023/07/22 06:22:40;;;;;;;7.00;5.07;;;16.30;79.80;;;;;;5062126;28;20570;-70
2023/07/22 06:25:08;;;;;;;6.18;4.35;;;16.20;79.80;;;;;;5065511;28;20509;-70
2023/07/22 06:27:36;;;;;;;6.03;4.45;;;16.30;79.70;;;;;;5066508;28;20047;-71
2023/07/22 06:30:03;;;;;;;6.45;4.45;;;16.30;79.60;;;;;;5065628;28;20069;-70
2023/07/22 06:32:30;;;;;;;5.82;4.50;;;16.30;79.50;;;;;;5065165;28;20058;-69
2023/07/22 06:34:58;;;;;;;5.65;4.03;;;16.40;79.30;;;;;;5066573;28;20048;-70
2023/07/22 06:37:25;;;;;;;6.50;4.57;;;16.60;78.60;;;;;;5066000;28;20098;-70
2023/07/22 06:39:52;;;;;;;5.80;4.07;;;16.60;78.70;;;;;;5066551;28;20052;-71
2023/07/22 06:42:19;;;;;;;6.50;4.07;;;16.60;78.50;;;;;;5066293;28;20063;-72
2023/07/22 06:44:47;;;;;;;6.22;4.78;;;16.80;78.50;;;;;;5064531;28;20103;-71
2023/07/22 06:47:14;;;;;;;5.75;4.25;;;16.90;78.50;;;;;;5067377;28;20044;-71
2023/07/22 06:49:41;;;;;;;6.63;4.93;;;16.90;78.00;;;;;;5067833;28;20051;-71
2023/07/22 06:52:10;;;;;;;6.10;4.22;;;17.00;77.70;;;;;;5062938;28;20045;-71
2023/07/22 06:54:37;;;;;;;6.22;4.72;;;17.20;77.60;;;;;;5066607;28;20048;-72
2023/07/22 06:57:05;;;;;;;6.20;4.25;;;17.10;77.20;;;;;;5065029;28;20126;-70
2023/07/22 06:59:32;;;;;;;5.95;4.10;;;17.20;77.20;;;;;;5065511;28;20101;-70
2023/07/22 07:02:00;;;;;;;6.78;4.65;;;17.40;77.10;;;;;;5063500;28;20140;-70
2023/07/22 07:04:27;;;;;;;5.30;4.18;;;17.40;76.50;;;;;;5063615;28;20459;-71
2023/07/22 07:06:55;;;;;;;4.95;3.45;;;17.60;76.10;;;;;;5067156;28;20061;-71
2023/07/22 07:09:23;;;;;;;5.10;3.75;;;17.70;76.10;;;;;;5064494;28;20376;-71
2023/07/22 07:11:50;;;;;;;5.82;3.88;;;17.70;75.50;;;;;;5062910;28;20048;-71
2023/07/22 07:14:17;;;;;;;5.97;3.97;;;17.80;75.10;;;;;;5066066;28;20090;-70
2023/07/22 07:16:45;;;;;;;4.95;3.72;;;17.90;75.30;;;;;;5066562;28;20055;-71
2023/07/22 07:19:12;;;;;;;8.30;4.00;;;18.10;75.20;;;;;;5064147;28;20416;-71
2023/07/22 07:21:39;;;;;;;4.60;3.35;;;18.10;74.80;;;;;;5064515;28;20036;-71
2023/07/22 07:24:06;;;;;;;4.80;3.53;;;18.10;75.20;;;;;;5064586;28;20044;-70
2023/07/22 07:26:34;;;;;;;5.90;3.90;;;18.10;74.90;;;;;;5063615;28;20048;-69
2023/07/22 07:29:01;;;;;;;7.07;4.15;;;18.20;75.10;;;;;;5061742;28;20111;-70
2023/07/22 07:31:28;;;;;;;5.25;3.70;;;18.40;75.00;;;;;;5065669;28;20128;-70
2023/07/22 07:33:55;;;;;;;5.30;3.90;;;18.60;74.50;;;;;;5066196;28;20504;-71
2023/07/22 07:36:22;;;;;;;7.50;4.72;;;18.60;73.90;;;;;;5065737;28;20048;-70
2023/07/22 07:38:49;;;;;;;8.07;4.95;;;18.60;74.00;;;;;;5063397;28;20049;-70
2023/07/22 07:41:16;;;;;;;7.18;4.78;;;18.60;74.10;;;;;;5064371;28;20048;-70
2023/07/22 07:43:45;;;;;;;6.65;4.97;;;18.80;74.00;;;;;;5063085;28;20056;-70
2023/07/22 07:46:21;;;;;;;5.97;4.22;;;19.00;73.50;;;;;;5066003;28;20051;-70
2023/07/22 07:48:50;;;;;;;5.60;4.03;;;19.20;73.40;;;;;;5063589;28;20044;-70
2023/07/22 07:51:18;;;;;;;5.68;3.67;;;19.30;73.00;;;;;;5062023;28;20048;-71
2023/07/22 07:53:46;;;;;;;6.05;4.30;;;19.50;72.60;;;;;;5065362;28;20052;-69
2023/07/22 07:56:14;;;;;;;6.07;4.75;;;19.60;72.90;;;;;;5061948;28;20516;-70
2023/07/22 07:58:41;;;;;;;6.10;4.43;;;19.50;72.20;;;;;;5065648;28;20079;-70
2023/07/22 08:01:10;;;;;;;5.70;4.00;;;19.70;72.60;;;;;;5064479;28;20497;-71
2023/07/22 08:03:38;;;;;;;5.43;3.95;;;19.90;72.20;;;;;;5063479;28;20044;-70
2023/07/22 08:06:06;;;;;;;6.10;4.68;;;20.00;70.90;;;;;;5064158;28;20623;-71
2023/07/22 08:08:33;;;;;;;6.43;4.55;;;20.10;70.70;;;;;;5065519;28;20143;-70
2023/07/22 08:11:01;;;;;;;6.00;4.47;;;20.20;69.70;;;;;;5065754;28;20059;-72
2023/07/22 08:13:29;;;;;;;5.88;4.22;;;20.30;69.80;;;;;;5064253;28;20507;-71
2023/07/22 08:15:57;;;;;;;5.40;4.00;;;20.60;69.20;;;;;;5062004;28;20044;-72
2023/07/22 08:18:25;;;;;;;6.75;4.35;;;20.70;68.70;;;;;;5064897;28;20044;-70
2023/07/22 08:20:53;;;;;;;6.68;4.20;;;20.90;68.50;;;;;;5065620;28;20424;-71
2023/07/22 08:23:20;;;;;;;6.07;4.20;;;21.00;68.00;;;;;;5064539;28;20105;-70
2023/07/22 08:25:48;;;;;;;5.20;3.53;;;21.10;67.10;;;;;;5061395;28;20425;-72
2023/07/22 08:28:15;;;;;;;5.88;4.07;;;21.30;66.70;;;;;;5065994;28;20154;-71
2023/07/22 08:30:42;;;;;;;5.18;4.05;;;21.30;66.50;;;;;;5063171;28;20047;-71
2023/07/22 08:33:09;;;;;;;5.93;4.13;;;21.40;66.70;;;;;;5064377;28;20051;-71
2023/07/22 08:35:38;;;;;;;6.82;4.57;;;21.50;66.30;;;;;;5058691;28;20052;-71
2023/07/22 08:38:06;;;;;;;6.03;4.20;;;21.60;65.10;;;;;;5064248;28;20059;-70
2023/07/22 08:40:35;;;;;;;5.18;3.67;;;21.80;64.70;;;;;;5062185;28;20052;-71
2023/07/22 08:43:04;;;;;;;6.10;4.03;;;21.80;63.80;;;;;;5063420;28;20083;-71
2023/07/22 08:45:34;;;;;;;5.95;4.18;;;22.00;63.30;;;;;;5063384;28;20552;-71
2023/07/22 08:48:06;;;;;;;7.07;4.07;;;22.10;62.60;;;;;;5063937;28;20135;-71
2023/07/22 08:50:42;;;;;;;6.38;3.60;;;22.10;62.20;;;;;;5062648;28;20083;-71
2023/07/22 08:53:09;;;;;;;7.00;4.30;;;22.10;61.80;;;;;;5062108;28;20056;-71
2023/07/22 08:55:37;;;;;;;5.88;3.97;;;22.20;61.90;;;;;;5062189;28;20522;-70
2023/07/22 08:58:05;;;;;;;6.93;5.10;;;22.30;61.70;;;;;;5063691;28;20127;-71
2023/07/22 09:00:32;;;;;;;9.98;8.07;;;22.50;61.50;;;;;;5063517;28;20056;-71
2023/07/22 09:03:00;;;;;;;11.77;8.40;;;22.70;61.10;;;;;;5063301;28;20653;-71
2023/07/22 09:05:28;;;;;;;9.43;6.72;;;22.90;60.90;;;;;;5061260;28;20041;-71
2023/07/22 09:07:57;;;;;;;9.90;7.13;;;23.10;60.30;;;;;;5061319;28;20493;-70
2023/07/22 09:10:27;;;;;;;10.52;6.97;;;23.10;59.80;;;;;;5062615;28;20501;-72
2023/07/22 09:12:54;;;;;;;8.98;6.00;;;23.30;58.90;;;;;;5060105;28;20056;-72
2023/07/22 09:15:23;;;;;;;7.80;5.97;;;23.60;59.10;;;;;;5060583;28;20053;-70
2023/07/22 09:17:50;;;;;;;7.05;5.65;;;23.70;58.40;;;;;;5062987;28;20052;-71
2023/07/22 09:20:18;;;;;;;7.13;4.68;;;24.00;57.50;;;;;;5065606;28;20048;-70
2023/07/22 09:22:45;;;;;;;7.80;5.13;;;24.10;56.30;;;;;;5059139;28;20037;-70
2023/07/22 09:25:19;;;;;;;6.60;5.13;;;24.10;56.80;;;;;;5062107;28;20051;-70
2023/07/22 09:27:47;;;;;;;8.20;4.90;;;24.30;56.10;;;;;;5063060;28;20060;-70
2023/07/22 09:30:25;;;;;;;6.40;4.18;;;24.40;55.50;;;;;;5064800;28;20425;-71
2023/07/22 09:32:54;;;;;;;6.63;4.83;;;24.40;55.20;;;;;;5063319;28;20044;-72
2023/07/22 09:35:21;;;;;;;8.55;5.13;;;24.30;54.60;;;;;;5060943;28;20569;-70
2023/07/22 09:37:48;;;;;;;7.28;4.55;;;24.20;54.90;;;;;;5062173;28;20048;-71
2023/07/22 09:40:21;;;;;;;6.50;4.20;;;24.00;55.30;;;;;;5062356;28;20044;-71
2023/07/22 09:42:50;;;;;;;5.50;3.63;;;23.90;53.90;;;;;;5060750;28;20514;-70
2023/07/22 09:45:18;;;;;;;6.13;3.95;;;24.00;52.60;;;;;;5062923;28;20057;-70
2023/07/22 09:47:46;;;;;;;5.85;3.72;;;24.10;52.00;;;;;;5061038;28;20045;-71
2023/07/22 09:50:16;;;;;;;5.15;3.20;;;24.20;51.50;;;;;;5061703;28;20427;-71
2023/07/22 09:52:47;;;;;;;5.05;3.20;;;24.20;51.60;;;;;;5062424;28;20044;-70
2023/07/22 09:55:16;;;;;;;6.45;3.40;;;24.20;51.40;;;;;;5059779;28;20055;-70
2023/07/22 09:57:47;;;;;;;6.18;3.50;;;24.20;51.00;;;;;;5064277;28;20055;-70
2023/07/22 10:00:15;;;;;;;5.18;3.17;;;24.30;50.40;;;;;;5065706;28;20048;-71
2023/07/22 10:02:44;;;;;;;5.60;3.47;;;24.30;50.90;;;;;;5062519;28;20678;-71
2023/07/22 10:05:16;;;;;;;5.53;3.33;;;24.50;50.80;;;;;;5065530;28;20091;-70
2023/07/22 10:07:49;;;;;;;5.90;3.70;;;24.60;50.90;;;;;;5060744;28;20465;-70
2023/07/22 10:10:18;;;;;;;7.18;4.45;;;24.70;50.60;;;;;;5060143;28;20530;-71
2023/07/22 10:12:47;;;;;;;6.38;4.45;;;25.00;50.50;;;;;;5062509;28;20535;-70
2023/07/22 10:15:17;;;;;;;9.18;6.88;;;25.10;50.30;;;;;;5062082;28;20059;-71
2023/07/22 10:17:45;;;;;;;11.07;8.82;;;25.20;50.10;;;;;;5059724;28;20072;-70
2023/07/22 10:20:14;;;;;;;9.05;7.13;;;25.00;49.90;;;;;;5062340;28;20052;-70
2023/07/22 10:22:44;;;;;;;9.75;7.68;;;24.70;49.30;;;;;;5061615;28;20052;-71
2023/07/22 10:25:11;;;;;;;;;;;24.40;49.70;;;;;;5056805;28;20134;-71
2023/07/22 10:27:40;;;;;;;7.10;5.10;;;24.20;49.70;;;;;;5058125;28;20403;-70
2023/07/22 10:30:10;;;;;;;7.30;5.07;;;24.00;49.90;;;;;;5059527;28;20044;-72
2023/07/22 10:32:39;;;;;;;6.53;4.28;;;23.80;50.40;;;;;;5059984;28;20134;-71
2023/07/22 10:35:10;;;;;;;6.45;4.10;;;23.70;50.70;;;;;;5063882;28;20504;-70
2023/07/22 10:37:38;;;;;;;5.43;3.50;;;23.60;50.70;;;;;;5059766;28;20568;-70
2023/07/22 10:40:19;;;;;;;6.10;3.70;;;23.60;50.90;;;;;;5063183;28;20068;-70
2023/07/22 10:42:54;;;;;;;6.10;3.97;;;23.60;51.50;;;;;;5061906;28;20052;-70
2023/07/22 10:45:31;;;;;;;5.15;3.35;;;23.60;51.60;;;;;;5058170;28;20048;-69
2023/07/22 10:48:04;;;;;;;4.97;3.45;;;23.60;51.40;;;;;;5059112;28;20057;-70
2023/07/22 10:50:42;;;;;;;6.00;3.25;;;23.70;51.70;;;;;;5058442;28;20064;-71
2023/07/22 10:53:11;;;;;;;5.13;3.65;;;23.80;51.80;;;;;;5063040;28;20829;-70
2023/07/22 10:56:04;;;;;;;5.63;3.40;;;23.80;51.60;;;;;;5063345;28;20063;-72
2023/07/22 10:58:31;;;;;;;6.75;3.38;;;23.80;51.80;;;;;;5062421;28;20045;-71
2023/07/22 11:01:24;;;;;;;6.20;3.35;;;23.80;51.50;;;;;;5063594;28;20480;-70
2023/07/22 11:04:11;;;;;;;4.75;2.70;;;23.80;51.40;;;;;;5068039;28;20052;-71
2023/07/22 11:06:39;;;;;;;4.88;3.20;;;23.70;51.10;;;;;;5066769;28;20076;-71
2023/07/22 11:09:06;;;;;;;5.05;3.00;;;23.60;51.60;;;;;;5067438;28;20052;-71
2023/07/22 11:11:38;;;;;;;6.30;3.38;;;23.60;51.70;;;;;;5061240;28;20519;-71
2023/07/22 11:14:19;;;;;;;4.75;2.70;;;23.60;51.30;;;;;;5066162;28;20052;-70
2023/07/22 11:16:48;;;;;;;4.80;3.25;;;23.60;51.30;;;;;;5062278;28;20105;-71
2023/07/22 11:19:16;;;;;;;5.00;3.08;;;24.00;51.10;;;;;;5066958;28;20543;-71
2023/07/22 11:21:43;;;;;;;6.18;3.28;;;24.40;50.60;;;;;;5063639;28;20523;-70
2023/07/22 11:24:10;;;;;;;4.72;3.08;;;24.60;50.30;;;;;;5061929;28;20132;-70
2023/07/22 11:26:38;;;;;;;5.05;3.20;;;24.90;49.60;;;;;;5063847;28;20596;-70
2023/07/22 11:29:07;;;;;;;5.25;3.55;;;25.00;49.30;;;;;;5061242;28;20049;-71
2023/07/22 11:31:36;;;;;;;5.68;3.42;;;25.00;48.70;;;;;;5061210;28;20052;-70
2023/07/22 11:34:05;;;;;;;4.70;2.92;;;24.90;48.60;;;;;;5063167;28;20121;-70
2023/07/22 11:36:32;;;;;;;5.43;3.10;;;24.90;48.20;;;;;;5059993;28;20084;-71
2023/07/22 11:39:02;;;;;;;4.57;3.03;;;24.90;48.20;;;;;;5064262;28;20778;-71
2023/07/22 11:41:30;;;;;;;4.75;3.38;;;24.90;47.70;;;;;;5062505;28;20513;-72
2023/07/22 11:43:58;;;;;;;5.35;3.00;;;24.90;47.70;;;;;;5064852;27;20512;-71
2023/07/22 11:46:26;;;;;;;5.47;3.10;;;24.90;47.70;;;;;;5062134;28;20072;-71
2023/07/22 11:48:54;;;;;;;5.85;2.85;;;24.90;48.00;;;;;;5065777;28;20048;-71
2023/07/22 11:51:24;;;;;;;6.63;3.20;;;25.10;47.70;;;;;;5065497;28;20435;-71
2023/07/22 11:53:53;;;;;;;5.82;3.22;;;25.30;47.90;;;;;;5067454;28;20537;-71
2023/07/22 11:56:22;;;;;;;4.75;3.05;;;25.60;47.70;;;;;;5065678;28;20055;-70
2023/07/22 11:58:52;;;;;;;7.63;3.42;;;25.60;47.50;;;;;;5065290;28;20539;-72
2023/07/22 12:01:20;;;;;;;5.00;3.17;;;25.70;47.10;;;;;;5061052;28;20123;-71
2023/07/22 12:03:47;;;;;;;6.03;3.08;;;25.70;46.90;;;;;;5066550;28;20051;-71
2023/07/22 12:06:15;;;;;;;5.40;3.05;;;25.80;46.60;;;;;;5064523;28;20492;-72
2023/07/22 12:08:47;;;;;;;5.18;2.83;;;26.00;46.70;;;;;;5066596;28;20134;-71
2023/07/22 12:11:19;;;;;;;5.22;3.20;;;26.00;46.50;;;;;;5067097;28;20356;-71
2023/07/22 12:13:50;;;;;;;4.97;2.80;;;26.00;45.70;;;;;;5066853;28;20048;-72
2023/07/22 12:16:23;;;;;;;5.50;3.25;;;26.10;44.90;;;;;;5066719;28;20041;-70
2023/07/22 12:18:50;;;;;;;5.22;3.22;;;26.10;45.40;;;;;;5065486;28;20045;-71
2023/07/22 12:21:17;;;;;;;6.15;2.80;;;26.10;44.80;;;;;;5063678;28;20488;-71
2023/07/22 12:23:46;;;;;;;4.72;2.90;;;26.10;44.90;;;;;;5064624;28;20079;-70
2023/07/22 12:26:13;;;;;;;;;;;26.20;44.70;;;;;;5066229;28;20128;-71
2023/07/22 12:28:40;;;;;;;6.75;3.00;;;26.10;45.00;;;;;;5062545;28;20058;-71
2023/07/22 12:31:09;;;;;;;5.55;3.10;;;26.10;44.50;;;;;;5061301;28;20353;-70
2023/07/22 12:33:36;;;;;;;3.97;2.83;;;26.00;44.20;;;;;;5066312;28;20040;-72
2023/07/22 12:36:03;;;;;;;4.00;2.72;;;26.00;44.30;;;;;;5064178;28;20053;-71
2023/07/22 12:38:30;;;;;;;5.10;3.00;;;26.00;44.20;;;;;;5064991;28;20110;-72
2023/07/22 12:40:59;;;;;;;5.03;3.03;;;26.00;43.90;;;;;;5064950;28;20040;-70
2023/07/22 12:43:26;;;;;;;5.03;2.85;;;26.10;44.80;;;;;;5066192;28;20045;-71
2023/07/22 12:45:52;;;;;;;4.97;2.88;;;26.10;44.50;;;;;;5062342;28;20530;-71
2023/07/22 12:48:19;;;;;;;4.88;2.95;;;26.10;44.70;;;;;;5061627;28;20280;-71
2023/07/22 12:50:47;;;;;;;4.88;3.08;;;26.10;43.50;;;;;;5063158;28;20052;-71
2023/07/22 12:53:14;;;;;;;5.35;3.08;;;26.00;43.30;;;;;;5065547;28;20040;-71